< < Back
Terminal Aerodrome Forecast


Current Version              Previous Versions:   1  2  3  4  5  6  7  8  9  

Terminal Aerodrome Forecast

660
FTUS42 KTAE 261100
TAFDHN
TAF
KDHN 261120Z 2612/2712 31010KT P6SM SKC
     FM262100 28008KT P6SM SKC=

Latest METAR

337
SAUS70 KWBC 261300 RRC
MTRDHN
METAR KDHN 261253Z 29008KT 10SM CLR 05/02 A3017 RMK AO2 SLP216
T00500022


USA.gov is the U.S. government's official web portal to all federal, state and local government web resources and services.